createdAt,value
2022-09-04T00:00:02.692Z,101397.56
2022-09-04T00:01:23.720Z,101401.53
2022-09-04T00:02:42.182Z,101403.63
2022-09-04T00:03:50.570Z,101401.16
2022-09-04T00:05:01.666Z,101403.00
2022-09-04T00:06:13.643Z,101400.53
2022-09-04T00:07:27.549Z,101398.06
2022-09-04T00:08:41.457Z,101408.00
2022-09-04T00:09:55.561Z,101400.97
2022-09-04T00:11:04.725Z,101402.81
2022-09-04T00:12:10.021Z,101398.72
2022-09-04T00:13:16.857Z,101398.72
2022-09-04T00:14:22.481Z,101406.78
2022-09-04T00:15:36.269Z,101400.56
2022-09-04T00:16:43.726Z,101393.53
2022-09-04T00:17:52.934Z,101399.94
2022-09-04T00:19:02.697Z,101402.66
2022-09-04T00:20:12.390Z,101401.00
2022-09-04T00:21:22.323Z,101416.31
2022-09-04T00:22:31.893Z,101402.25
2022-09-04T00:23:42.297Z,101401.44
2022-09-04T00:24:51.891Z,101400.59
2022-09-04T00:26:02.621Z,101404.31
2022-09-04T00:27:07.975Z,101408.91
2022-09-04T00:28:18.442Z,101399.16
2022-09-04T00:29:26.697Z,101403.94
2022-09-04T00:30:30.193Z,101402.91
2022-09-04T00:31:38.908Z,101409.13
2022-09-04T00:32:46.100Z,101410.13
2022-09-04T00:33:55.242Z,101405.59
2022-09-04T00:35:09.234Z,101407.44
2022-09-04T00:36:12.670Z,101399.59
2022-09-04T00:37:23.303Z,101409.53
2022-09-04T00:38:38.275Z,101409.53
2022-09-04T00:39:46.945Z,101395.69
2022-09-04T00:41:01.851Z,101399.19
2022-09-04T00:42:21.042Z,101405.63
2022-09-04T00:43:49.982Z,101404.78
2022-09-04T00:45:06.947Z,101404.78
2022-09-04T00:46:40.093Z,101401.47
2022-09-04T00:48:03.409Z,101397.97
2022-09-04T00:49:37.566Z,101394.88
2022-09-04T00:50:55.675Z,101392.59
2022-09-04T00:52:08.390Z,101400.06
2022-09-04T00:53:29.191Z,101399.84
2022-09-04T00:54:56.035Z,101400.06
2022-09-04T00:56:29.660Z,101401.06
2022-09-04T00:58:08.127Z,101397.78
2022-09-04T00:59:18.499Z,101401.72
2022-09-04T01:00:23.192Z,101409.81
2022-09-04T01:01:28.150Z,101400.09
2022-09-04T01:02:40.415Z,101405.47
2022-09-04T01:03:59.337Z,101402.78
2022-09-04T01:05:10.007Z,101408.38
2022-09-04T01:06:29.721Z,101405.69
2022-09-04T01:07:45.436Z,101402.16
2022-09-04T01:09:26.157Z,101403.22
2022-09-04T01:10:42.038Z,101396.16
2022-09-04T01:11:57.162Z,101399.06
2022-09-04T01:13:09.133Z,101400.13
2022-09-04T01:14:18.155Z,101397.44
2022-09-04T01:15:29.074Z,101398.44
2022-09-04T01:16:37.495Z,101401.13
2022-09-04T01:17:48.161Z,101400.34
2022-09-04T01:18:58.458Z,101411.09
2022-09-04T01:20:09.852Z,101402.19
2022-09-04T01:21:30.956Z,101406.75
2022-09-04T01:23:11.413Z,101409.44
2022-09-04T01:24:33.610Z,101403.22
2022-09-04T01:25:57.622Z,101406.94
2022-09-04T01:27:05.716Z,101400.75
2022-09-04T01:28:15.286Z,101403.44
2022-09-04T01:29:26.646Z,101406.94
2022-09-04T01:30:36.147Z,101400.75
2022-09-04T01:31:46.698Z,101408.00
2022-09-04T01:33:10.480Z,101408.00
2022-09-04T01:34:32.465Z,101408.81
2022-09-04T01:35:44.669Z,101413.38
2022-09-04T01:36:52.346Z,101406.34
2022-09-04T01:38:07.591Z,101416.88
2022-09-04T01:39:09.607Z,101413.38
2022-09-04T01:40:35.165Z,101414.41
2022-09-04T01:41:46.149Z,101424.38
2022-09-04T01:42:52.623Z,101411.94
2022-09-04T01:43:55.917Z,101403.84
2022-09-04T01:44:57.925Z,101405.72
2022-09-04T01:46:24.122Z,101415.66
2022-09-04T01:47:36.496Z,101409.47
2022-09-04T01:48:46.053Z,101402.44
2022-09-04T01:49:55.278Z,101413.19
2022-09-04T01:51:05.934Z,101402.44
2022-09-04T01:52:33.362Z,101416.91
2022-09-04T01:53:37.232Z,101411.53
2022-09-04T01:55:01.117Z,101411.97
2022-09-04T01:56:13.075Z,101406.56
2022-09-04T01:57:30.180Z,101412.97
2022-09-04T01:58:43.233Z,101404.91
2022-09-04T01:59:58.500Z,101403.22
2022-09-04T02:01:14.137Z,101407.19
2022-09-04T02:02:30.075Z,101414.41
2022-09-04T02:03:42.137Z,101415.25
2022-09-04T02:04:51.784Z,101418.16
2022-09-04T02:06:06.020Z,101411.13
2022-09-04T02:07:18.216Z,101410.09
2022-09-04T02:08:39.521Z,101416.50
2022-09-04T02:09:52.300Z,101411.13
2022-09-04T02:11:05.532Z,101413.00
2022-09-04T02:12:16.494Z,101420.22
2022-09-04T02:13:29.408Z,101417.53
2022-09-04T02:14:40.247Z,101412.16
2022-09-04T02:15:48.158Z,101423.94
2022-09-04T02:17:08.691Z,101418.56
2022-09-04T02:18:20.394Z,101416.91
2022-09-04T02:19:36.140Z,101413.41
2022-09-04T02:20:45.865Z,101420.03
2022-09-04T02:21:51.709Z,101421.69
2022-09-04T02:23:04.316Z,101411.97
2022-09-04T02:24:15.814Z,101414.66
2022-09-04T02:25:28.855Z,101421.06
2022-09-04T02:26:37.260Z,101419.41
2022-09-04T02:27:50.078Z,101422.09
2022-09-04T02:29:03.510Z,101427.50
2022-09-04T02:30:10.236Z,101420.47
2022-09-04T02:31:20.563Z,101428.53
2022-09-04T02:32:29.066Z,101421.50
2022-09-04T02:33:39.265Z,101427.91
2022-09-04T02:34:48.916Z,101426.06
2022-09-04T02:35:57.673Z,101426.25
2022-09-04T02:37:07.218Z,101430.81
2022-09-04T02:38:21.128Z,101425.03
2022-09-04T02:39:43.223Z,101428.34
2022-09-04T02:40:51.843Z,101428.56
2022-09-04T02:42:05.307Z,101433.09
2022-09-04T02:43:21.729Z,101431.44
2022-09-04T02:44:38.605Z,101426.25
2022-09-04T02:45:47.890Z,101428.16
2022-09-04T02:47:01.116Z,101433.75
2022-09-04T02:48:13.590Z,101435.19
2022-09-04T02:49:26.728Z,101433.53
2022-09-04T02:50:48.008Z,101436.81
2022-09-04T02:52:01.879Z,101422.78
2022-09-04T02:53:16.730Z,101432.69
2022-09-04T02:54:36.597Z,101434.75
2022-09-04T02:55:52.774Z,101431.47
2022-09-04T02:57:07.898Z,101429.81
2022-09-04T02:58:21.968Z,101436.22
2022-09-04T02:59:39.020Z,101434.78
2022-09-04T03:00:47.958Z,101437.69
2022-09-04T03:01:57.608Z,101433.31
2022-09-04T03:03:05.614Z,101439.75
2022-09-04T03:04:16.037Z,101436.44
2022-09-04T03:05:21.015Z,101442.84
2022-09-04T03:06:33.125Z,101440.38
2022-09-04T03:07:40.218Z,101445.97
2022-09-04T03:08:51.621Z,101448.88
2022-09-04T03:10:06.980Z,101457.09
2022-09-04T03:11:18.561Z,101451.94
2022-09-04T03:12:33.050Z,101447.81
2022-09-04T03:13:46.315Z,101453.19
2022-09-04T03:14:59.261Z,101453.41
2022-09-04T03:16:11.262Z,101454.41
2022-09-04T03:17:21.914Z,101456.31
2022-09-04T03:18:31.205Z,101455.47
2022-09-04T03:19:40.396Z,101456.69
2022-09-04T03:20:49.725Z,101455.06
2022-09-04T03:21:56.463Z,101455.25
2022-09-04T03:23:05.693Z,101454.44
2022-09-04T03:24:14.226Z,101460.84
2022-09-04T03:25:53.032Z,101454.63
2022-09-04T03:26:58.437Z,101469.34
2022-09-04T03:28:02.298Z,101464.16
2022-09-04T03:29:12.712Z,101460.44
2022-09-04T03:30:18.026Z,101454.84
2022-09-04T03:31:40.913Z,101461.66
2022-09-04T03:32:53.632Z,101461.66
2022-09-04T03:34:07.665Z,101460.00
2022-09-04T03:35:20.125Z,101459.19
2022-09-04T03:36:33.475Z,101464.75
2022-09-04T03:37:51.880Z,101460.44
2022-09-04T03:39:04.004Z,101460.44
2022-09-04T03:40:34.807Z,101462.28
2022-09-04T03:41:42.909Z,101456.28
2022-09-04T03:42:59.602Z,101457.13
2022-09-04T03:44:13.736Z,101462.69
2022-09-04T03:45:24.600Z,101461.84
2022-09-04T03:46:39.134Z,101460.22
2022-09-04T03:47:51.149Z,101463.91
2022-09-04T03:49:10.309Z,101463.31
2022-09-04T03:50:24.354Z,101463.31
2022-09-04T03:51:38.155Z,101463.31
2022-09-04T03:52:51.076Z,101470.75
2022-09-04T03:54:04.696Z,101476.13
2022-09-04T03:55:21.129Z,101477.13
2022-09-04T03:56:41.758Z,101471.97
2022-09-04T03:57:56.062Z,101472.19
2022-09-04T03:59:05.551Z,101476.75
2022-09-04T04:00:12.428Z,101469.91
2022-09-04T04:01:27.066Z,101472.81
2022-09-04T04:02:38.094Z,101476.53
2022-09-04T04:04:01.481Z,101475.91
2022-09-04T04:05:22.479Z,101472.38
2022-09-04T04:06:39.408Z,101484.16
2022-09-04T04:07:52.667Z,101486.44
2022-09-04T04:09:20.461Z,101485.19
2022-09-04T04:10:33.680Z,101481.06
2022-09-04T04:11:53.368Z,101485.59
2022-09-04T04:13:19.353Z,101484.75
2022-09-04T04:14:38.620Z,101489.31
2022-09-04T04:15:55.957Z,101486.00
2022-09-04T04:17:20.319Z,101495.06
2022-09-04T04:18:39.066Z,101484.13
2022-09-04T04:19:54.259Z,101499.66
2022-09-04T04:21:06.095Z,101497.97
2022-09-04T04:22:20.548Z,101499.22
2022-09-04T04:23:58.447Z,101480.59
2022-09-04T04:25:24.517Z,101497.53
2022-09-04T04:26:40.568Z,101503.97
2022-09-04T04:27:58.055Z,101509.31
2022-09-04T04:29:26.809Z,101506.00
2022-09-04T04:30:35.167Z,101502.53
2022-09-04T04:32:09.931Z,101509.75
2022-09-04T04:33:28.393Z,101511.78
2022-09-04T04:34:40.253Z,101514.47
2022-09-04T04:35:50.851Z,101516.53
2022-09-04T04:37:00.914Z,101512.19
2022-09-04T04:38:18.245Z,101513.22
2022-09-04T04:39:30.456Z,101521.44
2022-09-04T04:40:55.480Z,101509.06
2022-09-04T04:42:11.321Z,101509.25
2022-09-04T04:43:19.520Z,101511.09
2022-09-04T04:44:50.610Z,101514.00
2022-09-04T04:45:57.223Z,101512.34
2022-09-04T04:47:08.773Z,101508.00
2022-09-04T04:48:37.817Z,101509.88
2022-09-04T04:49:58.511Z,101513.56
2022-09-04T04:51:12.853Z,101510.44
2022-09-04T04:52:29.858Z,101510.03
2022-09-04T04:53:42.829Z,101509.03
2022-09-04T04:55:05.544Z,101506.56
2022-09-04T04:56:15.656Z,101513.78
2022-09-04T04:57:30.438Z,101512.94
2022-09-04T04:58:56.165Z,101507.53
2022-09-04T05:00:08.385Z,101517.50
2022-09-04T05:01:23.618Z,101520.19
2022-09-04T05:02:31.347Z,101519.34
2022-09-04T05:03:48.549Z,101522.03
2022-09-04T05:04:58.151Z,101512.69
2022-09-04T05:06:07.099Z,101522.88
2022-09-04T05:07:18.825Z,101519.34
2022-09-04T05:08:32.242Z,101522.88
2022-09-04T05:09:43.248Z,101524.06
2022-09-04T05:10:51.039Z,101520.97
2022-09-04T05:12:00.741Z,101515.63
2022-09-04T05:13:16.840Z,101526.78
2022-09-04T05:14:29.947Z,101526.78
2022-09-04T05:15:52.995Z,101528.25
2022-09-04T05:17:10.882Z,101533.41
2022-09-04T05:18:22.653Z,101539.44
2022-09-04T05:19:33.839Z,101534.88
2022-09-04T05:20:45.254Z,101544.44
2022-09-04T05:21:55.723Z,101544.22
2022-09-04T05:23:10.370Z,101552.91
2022-09-04T05:24:20.864Z,101543.59
2022-09-04T05:25:34.344Z,101544.25
2022-09-04T05:26:45.986Z,101552.28
2022-09-04T05:27:57.502Z,101556.25
2022-09-04T05:29:08.032Z,101546.94
2022-09-04T05:30:15.574Z,101553.16
2022-09-04T05:31:28.490Z,101548.41
2022-09-04T05:32:36.094Z,101555.44
2022-09-04T05:33:45.965Z,101557.72
2022-09-04T05:35:08.388Z,101552.97
2022-09-04T05:36:20.191Z,101564.13
2022-09-04T05:37:32.648Z,101556.50
2022-09-04T05:38:44.675Z,101554.44
2022-09-04T05:40:02.580Z,101557.56
2022-09-04T05:41:07.486Z,101561.69
2022-09-04T05:42:38.106Z,101560.47
2022-09-04T05:43:55.234Z,101561.72
2022-09-04T05:45:06.531Z,101566.66
2022-09-04T05:46:19.373Z,101560.91
2022-09-04T05:47:34.929Z,101567.50
2022-09-04T05:48:46.938Z,101566.28
2022-09-04T05:50:13.040Z,101566.72
2022-09-04T05:51:52.125Z,101573.31
2022-09-04T05:53:20.683Z,101566.31
2022-09-04T05:54:51.465Z,101579.13
2022-09-04T05:56:17.396Z,101573.34
2022-09-04T05:57:33.870Z,101575.44
2022-09-04T05:58:54.306Z,101568.59
2022-09-04T06:00:19.708Z,101571.50
2022-09-04T06:01:40.783Z,101571.69
2022-09-04T06:03:09.979Z,101565.72
2022-09-04T06:04:31.088Z,101569.44
2022-09-04T06:05:46.910Z,101572.53
2022-09-04T06:06:58.719Z,101573.78
2022-09-04T06:08:15.990Z,101572.53
2022-09-04T06:09:45.794Z,101579.78
2022-09-04T06:11:01.190Z,101570.91
2022-09-04T06:12:22.666Z,101574.84
2022-09-04T06:13:45.094Z,101531.75
2022-09-04T06:15:07.482Z,101576.06
2022-09-04T06:16:25.746Z,101575.44
2022-09-04T06:17:40.001Z,101579.56
2022-09-04T06:19:00.890Z,101588.25
2022-09-04T06:20:10.987Z,101604.59
2022-09-04T06:21:57.868Z,101593.19
2022-09-04T06:23:14.492Z,101581.59
2022-09-04T06:24:39.706Z,101589.88
2022-09-04T06:26:07.982Z,101582.00
2022-09-04T06:27:34.568Z,101585.88
2022-09-04T06:28:53.829Z,101590.66
2022-09-04T06:30:06.347Z,101584.00
2022-09-04T06:31:30.128Z,101587.50
2022-09-04T06:32:59.205Z,101585.84
2022-09-04T06:34:11.121Z,101592.44
2022-09-04T06:35:33.063Z,101590.16
2022-09-04T06:36:51.540Z,101598.19
2022-09-04T06:38:10.241Z,101602.97
2022-09-04T06:39:42.052Z,101595.06
2022-09-04T06:40:57.486Z,101596.28
2022-09-04T06:42:16.287Z,101590.69
2022-09-04T06:43:29.633Z,101593.16
2022-09-04T06:44:47.099Z,101586.28
2022-09-04T06:46:02.391Z,101588.75
2022-09-04T06:47:14.783Z,101587.69
2022-09-04T06:48:29.666Z,101587.03
2022-09-04T06:49:39.429Z,101589.06
2022-09-04T06:50:53.658Z,101591.38
2022-09-04T06:52:12.759Z,101593.19
2022-09-04T06:53:22.618Z,101577.84
2022-09-04T06:54:42.503Z,101584.81
2022-09-04T06:55:53.399Z,101582.28
2022-09-04T06:57:19.344Z,101593.47
2022-09-04T06:58:46.121Z,101588.88
2022-09-04T06:59:58.837Z,101596.28
2022-09-04T07:01:08.150Z,101589.41
2022-09-04T07:02:24.769Z,101584.19
2022-09-04T07:03:39.700Z,101589.13
2022-09-04T07:04:55.294Z,101592.63
2022-09-04T07:06:04.241Z,101594.88
2022-09-04T07:07:19.222Z,101588.00
2022-09-04T07:08:34.044Z,101596.25
2022-09-04T07:09:43.218Z,101596.03
2022-09-04T07:10:50.949Z,101597.84
2022-09-04T07:12:33.608Z,101601.78
2022-09-04T07:13:52.277Z,101597.34
2022-09-04T07:15:24.996Z,101602.91
2022-09-04T07:16:37.553Z,101598.72
2022-09-04T07:17:47.697Z,101609.06
2022-09-04T07:19:36.033Z,101605.69
2022-09-04T07:20:46.598Z,101608.78
2022-09-04T07:22:00.468Z,101603.53
2022-09-04T07:23:23.401Z,101605.81
2022-09-04T07:24:47.622Z,101606.16
2022-09-04T07:26:02.577Z,101605.13
2022-09-04T07:27:15.762Z,101597.84
2022-09-04T07:28:36.412Z,101606.69
2022-09-04T07:29:47.888Z,101599.03
2022-09-04T07:30:55.122Z,101603.09
2022-09-04T07:32:04.891Z,101613.22
2022-09-04T07:33:14.019Z,101620.06
2022-09-04T07:34:21.480Z,101616.69
2022-09-04T07:35:31.594Z,101626.81
2022-09-04T07:36:40.717Z,101628.03
2022-09-04T07:37:51.294Z,101626.72
2022-09-04T07:39:01.769Z,101628.78
2022-09-04T07:40:11.478Z,101631.03
2022-09-04T07:41:23.873Z,101629.50
2022-09-04T07:42:33.026Z,101634.03
2022-09-04T07:43:46.139Z,101624.84
2022-09-04T07:44:59.699Z,101634.78
2022-09-04T07:46:10.917Z,101637.28
2022-09-04T07:47:18.131Z,101638.69
2022-09-04T07:48:30.518Z,101634.72
2022-09-04T07:49:36.140Z,101643.19
2022-09-04T07:50:51.495Z,101635.66
2022-09-04T07:51:58.979Z,101632.50
2022-09-04T07:53:23.387Z,101639.94
2022-09-04T07:55:04.482Z,101633.59
2022-09-04T07:56:14.437Z,101632.69
2022-09-04T07:57:37.443Z,101644.47
2022-09-04T07:58:54.738Z,101640.25
2022-09-04T08:00:08.368Z,101639.06
2022-09-04T08:01:49.445Z,101639.00
2022-09-04T08:03:13.848Z,101643.47
2022-09-04T08:04:44.033Z,101642.53
2022-09-04T08:05:53.199Z,101639.16
2022-09-04T08:06:59.617Z,101635.97
2022-09-04T08:08:39.789Z,101645.63
2022-09-04T08:09:59.721Z,101643.06
2022-09-04T08:11:26.320Z,101642.16
2022-09-04T08:12:57.298Z,101646.63
2022-09-04T08:14:10.169Z,101644.88
2022-09-04T08:15:19.902Z,101650.66
2022-09-04T08:16:30.630Z,101653.25
2022-09-04T08:17:59.167Z,101652.53
2022-09-04T08:19:22.449Z,101659.16
2022-09-04T08:20:49.418Z,101660.31
2022-09-04T08:21:53.852Z,101664.22
2022-09-04T08:23:05.638Z,101662.69
2022-09-04T08:24:38.138Z,101667.41
2022-09-04T08:25:55.676Z,101672.59
2022-09-04T08:27:10.766Z,101663.50
2022-09-04T08:28:35.686Z,101670.09
2022-09-04T08:30:04.200Z,101664.78
2022-09-04T08:31:17.201Z,101674.47
2022-09-04T08:33:10.119Z,101671.63
2022-09-04T08:34:48.465Z,101672.88
2022-09-04T08:36:00.943Z,101666.56
2022-09-04T08:37:12.883Z,101662.03
2022-09-04T08:38:47.083Z,101672.75
2022-09-04T08:40:04.830Z,101673.44
2022-09-04T08:41:47.169Z,101668.13
2022-09-04T08:43:13.813Z,101675.31
2022-09-04T08:45:00.751Z,101680.25
2022-09-04T08:46:27.076Z,101680.34
2022-09-04T08:48:09.307Z,101672.31
2022-09-04T08:50:01.023Z,101677.84
2022-09-04T08:51:40.120Z,101670.63
2022-09-04T08:53:18.830Z,101672.34
2022-09-04T08:54:40.103Z,101676.00
2022-09-04T08:56:06.365Z,101678.22
2022-09-04T08:57:43.386Z,101676.44
2022-09-04T08:59:33.004Z,101675.94
2022-09-04T09:00:50.163Z,101668.13
2022-09-04T09:02:36.992Z,101667.41
2022-09-04T09:04:08.482Z,101678.63
2022-09-04T09:05:55.753Z,101679.75
2022-09-04T09:07:24.547Z,101673.59
2022-09-04T09:09:09.628Z,101672.84
2022-09-04T09:10:35.740Z,101677.28
2022-09-04T09:12:15.198Z,101673.88
2022-09-04T09:13:50.846Z,101671.47
2022-09-04T09:15:26.299Z,101686.78
2022-09-04T09:16:43.892Z,101671.31
2022-09-04T09:18:17.702Z,101672.22
2022-09-04T09:19:24.163Z,101675.50
2022-09-04T09:20:28.931Z,101675.03
2022-09-04T09:23:18.073Z,101673.50
2022-09-04T09:25:04.919Z,101675.47
2022-09-04T09:26:27.717Z,101671.19
2022-09-04T09:28:16.426Z,101676.72
2022-09-04T09:29:50.175Z,101674.06
2022-09-04T09:31:28.164Z,101672.53
2022-09-04T09:33:06.683Z,101673.41
2022-09-04T09:34:29.165Z,101675.66
2022-09-04T09:35:59.306Z,101674.91
2022-09-04T09:37:44.999Z,101679.31
2022-09-04T09:39:26.726Z,101681.06
2022-09-04T09:41:06.486Z,101673.28
2022-09-04T09:42:52.269Z,101679.91
2022-09-04T09:44:28.160Z,101679.47
2022-09-04T09:46:09.246Z,101669.78
2022-09-04T09:47:38.111Z,101675.03
2022-09-04T09:49:13.893Z,101679.44
2022-09-04T09:50:49.316Z,101677.03
2022-09-04T09:52:23.131Z,101686.38
2022-09-04T09:53:49.108Z,101672.81
2022-09-04T09:55:33.299Z,101681.88
2022-09-04T09:57:20.361Z,101675.41
2022-09-04T09:59:21.813Z,101672.97
2022-09-04T10:00:27.563Z,101672.78
2022-09-04T10:01:54.244Z,101680.44
2022-09-04T10:03:49.092Z,101676.13
2022-09-04T10:05:44.215Z,101668.25
2022-09-04T10:07:21.209Z,101666.63
2022-09-04T10:08:51.395Z,101670.50
2022-09-04T10:10:24.863Z,101668.66
2022-09-04T10:12:20.446Z,101669.75
2022-09-04T10:13:43.800Z,101674.47
2022-09-04T10:15:09.863Z,101669.53
2022-09-04T10:16:34.943Z,101675.03
2022-09-04T10:18:15.749Z,101673.44
2022-09-04T10:20:00.295Z,101669.69
2022-09-04T10:21:25.867Z,101677.66
2022-09-04T10:23:04.412Z,101668.19
2022-09-04T10:24:29.332Z,101676.13
2022-09-04T10:26:15.208Z,101678.63
2022-09-04T10:28:03.539Z,101675.69
2022-09-04T10:29:26.490Z,101674.06
2022-09-04T10:30:36.911Z,101670.53
2022-09-04T10:31:52.369Z,101667.56
2022-09-04T10:33:26.459Z,101671.44
2022-09-04T10:35:03.257Z,101669.53
2022-09-04T10:36:22.848Z,101670.94
2022-09-04T10:37:40.420Z,101675.06
2022-09-04T10:39:12.641Z,101670.69
2022-09-04T10:40:43.782Z,101673.22
2022-09-04T10:42:05.873Z,101677.34
2022-09-04T10:43:31.045Z,101665.34
2022-09-04T10:45:01.264Z,101680.13
2022-09-04T10:46:13.912Z,101673.59
2022-09-04T10:47:46.293Z,101670.88
2022-09-04T10:49:30.467Z,101669.25
2022-09-04T10:51:08.253Z,101674.75
2022-09-04T10:52:43.212Z,101667.09
2022-09-04T10:54:20.062Z,101677.50
2022-09-04T10:55:38.044Z,101667.13
2022-09-04T10:56:51.523Z,101674.78
2022-09-04T10:58:30.077Z,101668.75
2022-09-04T10:59:54.704Z,101677.81
2022-09-04T11:01:30.660Z,101681.91
2022-09-04T11:03:15.602Z,101674.25
2022-09-04T11:04:36.745Z,101667.44
2022-09-04T11:06:07.710Z,101671.81
2022-09-04T11:07:43.969Z,101675.13
2022-09-04T11:09:28.351Z,101669.97
2022-09-04T11:10:46.000Z,101672.13
2022-09-04T11:12:19.723Z,101673.22
2022-09-04T11:14:03.716Z,101677.06
2022-09-04T11:15:30.254Z,101676.50
2022-09-04T11:16:57.589Z,101674.88
2022-09-04T11:18:24.204Z,101660.94
2022-09-04T11:20:01.807Z,101664.50
2022-09-04T11:21:35.744Z,101671.06
2022-09-04T11:23:20.626Z,101671.63
2022-09-04T11:25:04.376Z,101658.22
2022-09-04T11:26:39.305Z,101660.13
2022-09-04T11:28:07.485Z,101647.28
2022-09-04T11:29:25.479Z,101656.31
2022-09-04T11:30:39.100Z,101658.50
2022-09-04T11:32:12.211Z,101659.31
2022-09-04T11:34:02.107Z,101652.72
2022-09-04T11:35:42.666Z,101654.63
2022-09-04T11:37:32.916Z,101649.47
2022-09-04T11:39:02.003Z,101649.75
2022-09-04T11:40:40.071Z,101645.66
2022-09-04T11:42:20.455Z,101612.81
2022-09-04T11:43:46.096Z,101640.94
2022-09-04T11:45:29.123Z,101642.88
2022-09-04T11:46:52.460Z,101639.84
2022-09-04T11:48:22.679Z,101646.13
2022-09-04T11:49:43.661Z,101652.16
2022-09-04T11:51:16.641Z,101649.41
2022-09-04T11:52:50.690Z,101643.09
2022-09-04T11:54:24.425Z,101651.06
2022-09-04T11:55:53.717Z,101646.38
2022-09-04T11:57:04.848Z,101655.16
2022-09-04T11:58:48.922Z,101652.41
2022-09-04T12:00:06.080Z,101649.63
2022-09-04T12:01:25.732Z,101654.56
2022-09-04T12:02:49.809Z,101645.53
2022-09-04T12:04:31.667Z,101650.44
2022-09-04T12:05:50.947Z,101648.50
2022-09-04T12:07:24.815Z,101661.09
2022-09-04T12:09:00.517Z,101656.94
2022-09-04T12:10:21.025Z,101657.78
2022-09-04T12:11:47.264Z,101651.22
2022-09-04T12:13:27.487Z,101654.22
2022-09-04T12:14:59.372Z,101662.19
2022-09-04T12:16:27.843Z,101651.22
2022-09-04T12:17:57.835Z,101657.78
2022-09-04T12:19:29.504Z,101652.59
2022-09-04T12:20:58.946Z,101660.81
2022-09-04T12:22:19.134Z,101653.94
2022-09-04T12:23:55.886Z,101654.19
2022-09-04T12:25:29.595Z,101657.50
2022-09-04T12:27:05.171Z,101658.03
2022-09-04T12:28:42.772Z,101655.56
2022-09-04T12:30:09.895Z,101651.69
2022-09-04T12:31:46.996Z,101651.97
2022-09-04T12:33:33.762Z,101652.22
2022-09-04T12:35:11.554Z,101643.44
2022-09-04T12:37:01.131Z,101643.97
2022-09-04T12:38:38.654Z,101646.16
2022-09-04T12:40:22.084Z,101648.34
2022-09-04T12:41:32.284Z,101649.44
2022-09-04T12:42:42.944Z,101642.34
2022-09-04T12:43:58.851Z,101641.81
2022-09-04T12:45:11.682Z,101642.88
2022-09-04T12:46:25.180Z,101654.41
2022-09-04T12:47:41.676Z,101655.53
2022-09-04T12:49:01.655Z,101653.06
2022-09-04T12:50:22.104Z,101649.78
2022-09-04T12:51:25.299Z,101656.59
2022-09-04T12:52:43.021Z,101648.94
2022-09-04T12:54:24.968Z,101647.31
2022-09-04T12:55:38.488Z,101652.78
2022-09-04T12:56:49.487Z,101648.13
2022-09-04T12:58:06.447Z,101644.53
2022-09-04T12:59:33.628Z,101642.84
2022-09-04T13:00:48.732Z,101646.97
2022-09-04T13:02:02.899Z,101643.66
2022-09-04T13:03:17.326Z,101641.16
2022-09-04T13:04:27.604Z,101642.25
2022-09-04T13:05:52.907Z,101640.56
2022-09-04T13:07:16.101Z,101652.88
2022-09-04T13:08:29.979Z,101645.44
2022-09-04T13:09:53.025Z,101646.78
2022-09-04T13:11:08.820Z,101635.47
2022-09-04T13:12:28.202Z,101641.44
2022-09-04T13:13:43.304Z,101638.88
2022-09-04T13:15:00.574Z,101636.63
2022-09-04T13:16:09.377Z,101646.13
2022-09-04T13:17:20.851Z,101646.28
2022-09-04T13:18:36.192Z,101648.06
2022-09-04T13:19:46.059Z,101646.00
2022-09-04T13:20:57.806Z,101648.03
2022-09-04T13:22:14.632Z,101646.47
2022-09-04T13:23:28.848Z,101646.00
2022-09-04T13:24:53.217Z,101650.25
2022-09-04T13:26:13.110Z,101655.16
2022-09-04T13:27:34.249Z,101654.66
2022-09-04T13:28:48.336Z,101653.88
2022-09-04T13:30:03.967Z,101651.50
2022-09-04T13:31:27.703Z,101657.06
2022-09-04T13:33:13.758Z,101656.88
2022-09-04T13:34:29.084Z,101648.44
2022-09-04T13:35:49.542Z,101644.69
2022-09-04T13:37:04.449Z,101651.59
2022-09-04T13:38:32.203Z,101649.22
2022-09-04T13:40:03.631Z,101646.00
2022-09-04T13:41:36.617Z,101651.63
2022-09-04T13:43:20.599Z,101655.34
2022-09-04T13:44:54.601Z,101651.13
2022-09-04T13:46:01.617Z,101661.91
2022-09-04T13:47:09.052Z,101658.47
2022-09-04T13:48:15.111Z,101650.88
2022-09-04T13:49:24.842Z,101655.28
2022-09-04T13:50:33.991Z,101659.41
2022-09-04T13:51:44.766Z,101654.25
2022-09-04T13:52:55.716Z,101646.59
2022-09-04T13:54:08.388Z,101651.25
2022-09-04T13:55:16.049Z,101649.63
2022-09-04T13:56:28.303Z,101644.41
2022-09-04T13:57:36.482Z,101649.91
2022-09-04T13:58:47.719Z,101647.16
2022-09-04T13:59:50.738Z,101652.94
2022-09-04T14:00:59.361Z,101656.75
2022-09-04T14:02:07.065Z,101661.44
2022-09-04T14:03:14.006Z,101659.78
2022-09-04T14:04:26.607Z,101669.13
2022-09-04T14:05:34.178Z,101660.34
2022-09-04T14:06:37.197Z,101667.53
2022-09-04T14:07:45.239Z,101665.91
2022-09-04T14:08:59.695Z,101656.06
2022-09-04T14:10:13.006Z,101658.56
2022-09-04T14:12:01.014Z,101667.91
2022-09-04T14:13:15.547Z,101658.34
2022-09-04T14:14:45.242Z,101651.75
2022-09-04T14:16:03.988Z,101659.44
2022-09-04T14:17:08.021Z,101662.72
2022-09-04T14:18:22.917Z,101655.09
2022-09-04T14:19:42.611Z,101657.00
2022-09-04T14:21:01.048Z,101654.81
2022-09-04T14:22:33.445Z,101649.59
2022-09-04T14:23:47.693Z,101661.34
2022-09-04T14:24:58.858Z,101653.69
2022-09-04T14:26:12.579Z,101649.28
2022-09-04T14:27:20.516Z,101663.75
2022-09-04T14:28:34.626Z,101657.97
2022-09-04T14:29:45.400Z,101666.16
2022-09-04T14:31:02.290Z,101658.72
2022-09-04T14:32:22.583Z,101659.25
2022-09-04T14:33:34.740Z,101654.78
2022-09-04T14:34:50.138Z,101653.38
2022-09-04T14:36:04.948Z,101656.91
2022-09-04T14:37:17.855Z,101659.13
2022-09-04T14:38:41.208Z,101661.56
2022-09-04T14:39:49.425Z,101659.91
2022-09-04T14:41:02.352Z,101663.47
2022-09-04T14:42:30.744Z,101652.53
2022-09-04T14:43:44.646Z,101654.72
2022-09-04T14:45:02.602Z,101665.16
2022-09-04T14:46:15.200Z,101665.44
2022-09-04T14:47:32.090Z,101666.53
2022-09-04T14:48:40.475Z,101663.25
2022-09-04T14:49:47.925Z,101672.31
2022-09-04T14:50:53.747Z,101675.84
2022-09-04T14:51:57.320Z,101665.19
2022-09-04T14:53:03.747Z,101675.31
2022-09-04T14:54:10.322Z,101671.75
2022-09-04T14:55:16.579Z,101666.25
2022-09-04T14:56:27.189Z,101662.41
2022-09-04T14:57:37.765Z,101656.63
2022-09-04T14:58:48.944Z,101660.78
2022-09-04T15:00:04.919Z,101661.84
2022-09-04T15:01:17.074Z,101668.38
2022-09-04T15:02:29.341Z,101662.88
2022-09-04T15:03:37.508Z,101667.50
2022-09-04T15:04:47.056Z,101670.47
2022-09-04T15:05:56.672Z,101665.00
2022-09-04T15:07:17.271Z,101660.34
2022-09-04T15:08:27.841Z,101660.59